sensor_id;sensor_type;location;lat;lon;timestamp;P1;durP1;ratioP1;P2;durP2;ratioP2
36691;SDS011;22678;52.052;4.242;2023-09-07T00:01:43;4.55;;;2.72;;
36691;SDS011;22678;52.052;4.242;2023-09-07T00:04:08;6.00;;;2.35;;
36691;SDS011;22678;52.052;4.242;2023-09-07T00:06:34;6.18;;;2.67;;
36691;SDS011;22678;52.052;4.242;2023-09-07T00:09:00;4.75;;;1.90;;
36691;SDS011;22678;52.052;4.242;2023-09-07T00:11:26;4.68;;;1.88;;
36691;SDS011;22678;52.052;4.242;2023-09-07T00:13:51;9.40;;;2.67;;
36691;SDS011;22678;52.052;4.242;2023-09-07T00:16:17;8.27;;;2.42;;
36691;SDS011;22678;52.052;4.242;2023-09-07T00:18:43;4.20;;;2.13;;
36691;SDS011;22678;52.052;4.242;2023-09-07T00:21:08;4.90;;;2.50;;
36691;SDS011;22678;52.052;4.242;2023-09-07T00:23:33;5.28;;;2.13;;
36691;SDS011;22678;52.052;4.242;2023-09-07T00:25:59;4.55;;;2.28;;
36691;SDS011;22678;52.052;4.242;2023-09-07T00:28:24;5.53;;;1.95;;
36691;SDS011;22678;52.052;4.242;2023-09-07T00:30:49;3.78;;;2.70;;
36691;SDS011;22678;52.052;4.242;2023-09-07T00:33:15;4.95;;;2.22;;
36691;SDS011;22678;52.052;4.242;2023-09-07T00:35:40;4.38;;;1.95;;
36691;SDS011;22678;52.052;4.242;2023-09-07T00:38:05;3.53;;;2.00;;
36691;SDS011;22678;52.052;4.242;2023-09-07T00:40:31;6.53;;;2.83;;
36691;SDS011;22678;52.052;4.242;2023-09-07T00:42:56;4.97;;;2.33;;
36691;SDS011;22678;52.052;4.242;2023-09-07T00:45:21;9.88;;;2.45;;
36691;SDS011;22678;52.052;4.242;2023-09-07T00:47:47;3.88;;;1.88;;
36691;SDS011;22678;52.052;4.242;2023-09-07T00:50:12;4.90;;;2.85;;
36691;SDS011;22678;52.052;4.242;2023-09-07T00:52:39;4.03;;;2.25;;
36691;SDS011;22678;52.052;4.242;2023-09-07T00:55:07;4.13;;;2.50;;
36691;SDS011;22678;52.052;4.242;2023-09-07T00:57:33;6.25;;;2.15;;
36691;SDS011;22678;52.052;4.242;2023-09-07T00:59:59;9.13;;;2.53;;
36691;SDS011;22678;52.052;4.242;2023-09-07T01:02:24;4.60;;;1.85;;
36691;SDS011;22678;52.052;4.242;2023-09-07T01:04:51;6.45;;;2.53;;
36691;SDS011;22678;52.052;4.242;2023-09-07T01:07:18;5.55;;;2.70;;
36691;SDS011;22678;52.052;4.242;2023-09-07T01:09:49;5.50;;;2.58;;
36691;SDS011;22678;52.052;4.242;2023-09-07T01:12:17;6.03;;;3.45;;
36691;SDS011;22678;52.052;4.242;2023-09-07T01:14:43;5.95;;;2.90;;
36691;SDS011;22678;52.052;4.242;2023-09-07T01:17:09;8.02;;;3.15;;
36691;SDS011;22678;52.052;4.242;2023-09-07T01:19:35;6.35;;;3.40;;
36691;SDS011;22678;52.052;4.242;2023-09-07T01:22:01;4.47;;;2.00;;
36691;SDS011;22678;52.052;4.242;2023-09-07T01:24:28;4.30;;;2.17;;
36691;SDS011;22678;52.052;4.242;2023-09-07T01:26:55;5.35;;;2.47;;
36691;SDS011;22678;52.052;4.242;2023-09-07T01:29:22;5.72;;;2.72;;
36691;SDS011;22678;52.052;4.242;2023-09-07T01:31:47;6.05;;;2.78;;
36691;SDS011;22678;52.052;4.242;2023-09-07T01:34:13;5.05;;;3.20;;
36691;SDS011;22678;52.052;4.242;2023-09-07T01:36:39;6.05;;;3.38;;
36691;SDS011;22678;52.052;4.242;2023-09-07T01:39:05;6.38;;;3.53;;
36691;SDS011;22678;52.052;4.242;2023-09-07T01:41:31;5.63;;;2.90;;
36691;SDS011;22678;52.052;4.242;2023-09-07T01:43:58;5.32;;;2.67;;
36691;SDS011;22678;52.052;4.242;2023-09-07T01:46:23;8.95;;;2.90;;
36691;SDS011;22678;52.052;4.242;2023-09-07T01:48:49;5.15;;;3.17;;
36691;SDS011;22678;52.052;4.242;2023-09-07T01:51:14;6.70;;;3.42;;
36691;SDS011;22678;52.052;4.242;2023-09-07T01:53:39;5.88;;;3.50;;
36691;SDS011;22678;52.052;4.242;2023-09-07T01:56:05;7.65;;;3.10;;
36691;SDS011;22678;52.052;4.242;2023-09-07T01:58:30;6.75;;;3.58;;
36691;SDS011;22678;52.052;4.242;2023-09-07T02:00:58;6.80;;;4.75;;
36691;SDS011;22678;52.052;4.242;2023-09-07T02:03:27;6.82;;;3.40;;
36691;SDS011;22678;52.052;4.242;2023-09-07T02:05:53;7.75;;;3.03;;
36691;SDS011;22678;52.052;4.242;2023-09-07T02:08:19;7.32;;;3.80;;
36691;SDS011;22678;52.052;4.242;2023-09-07T02:10:44;7.63;;;3.30;;
36691;SDS011;22678;52.052;4.242;2023-09-07T02:13:10;6.32;;;3.28;;
36691;SDS011;22678;52.052;4.242;2023-09-07T02:15:39;6.07;;;3.25;;
36691;SDS011;22678;52.052;4.242;2023-09-07T02:18:05;8.35;;;4.22;;
36691;SDS011;22678;52.052;4.242;2023-09-07T02:20:34;5.22;;;3.65;;
36691;SDS011;22678;52.052;4.242;2023-09-07T02:23:00;9.63;;;4.47;;
36691;SDS011;22678;52.052;4.242;2023-09-07T02:25:25;6.93;;;3.95;;
36691;SDS011;22678;52.052;4.242;2023-09-07T02:27:52;6.65;;;4.65;;
36691;SDS011;22678;52.052;4.242;2023-09-07T02:30:17;6.70;;;3.75;;
36691;SDS011;22678;52.052;4.242;2023-09-07T02:32:43;6.78;;;3.88;;
36691;SDS011;22678;52.052;4.242;2023-09-07T02:35:08;8.75;;;4.70;;
36691;SDS011;22678;52.052;4.242;2023-09-07T02:37:35;6.53;;;3.67;;
36691;SDS011;22678;52.052;4.242;2023-09-07T02:40:00;6.38;;;3.65;;
36691;SDS011;22678;52.052;4.242;2023-09-07T02:42:26;7.45;;;3.97;;
36691;SDS011;22678;52.052;4.242;2023-09-07T02:44:51;7.22;;;4.25;;
36691;SDS011;22678;52.052;4.242;2023-09-07T02:47:17;6.40;;;3.67;;
36691;SDS011;22678;52.052;4.242;2023-09-07T02:49:42;10.27;;;4.55;;
36691;SDS011;22678;52.052;4.242;2023-09-07T02:52:07;5.90;;;4.28;;
36691;SDS011;22678;52.052;4.242;2023-09-07T02:54:33;10.30;;;5.97;;
36691;SDS011;22678;52.052;4.242;2023-09-07T02:56:58;7.00;;;4.18;;
36691;SDS011;22678;52.052;4.242;2023-09-07T02:59:23;9.18;;;4.13;;
36691;SDS011;22678;52.052;4.242;2023-09-07T03:01:49;7.85;;;4.50;;
36691;SDS011;22678;52.052;4.242;2023-09-07T03:04:14;7.72;;;4.50;;
36691;SDS011;22678;52.052;4.242;2023-09-07T03:06:39;11.07;;;5.40;;
36691;SDS011;22678;52.052;4.242;2023-09-07T03:09:05;8.13;;;4.25;;
36691;SDS011;22678;52.052;4.242;2023-09-07T03:11:34;8.00;;;3.97;;
36691;SDS011;22678;52.052;4.242;2023-09-07T03:13:59;7.88;;;4.93;;
36691;SDS011;22678;52.052;4.242;2023-09-07T03:16:25;8.52;;;4.43;;
36691;SDS011;22678;52.052;4.242;2023-09-07T03:18:50;7.75;;;4.18;;
36691;SDS011;22678;52.052;4.242;2023-09-07T03:21:16;8.73;;;5.63;;
36691;SDS011;22678;52.052;4.242;2023-09-07T03:23:41;12.63;;;6.47;;
36691;SDS011;22678;52.052;4.242;2023-09-07T03:26:09;21.60;;;11.27;;
36691;SDS011;22678;52.052;4.242;2023-09-07T03:28:34;20.95;;;10.02;;
36691;SDS011;22678;52.052;4.242;2023-09-07T03:30:59;11.88;;;8.35;;
36691;SDS011;22678;52.052;4.242;2023-09-07T03:33:25;12.38;;;6.68;;
36691;SDS011;22678;52.052;4.242;2023-09-07T03:35:50;10.50;;;6.10;;
36691;SDS011;22678;52.052;4.242;2023-09-07T03:38:17;9.77;;;5.65;;
36691;SDS011;22678;52.052;4.242;2023-09-07T03:40:42;11.90;;;5.68;;
36691;SDS011;22678;52.052;4.242;2023-09-07T03:43:08;9.43;;;6.28;;
36691;SDS011;22678;52.052;4.242;2023-09-07T03:45:34;11.35;;;5.55;;
36691;SDS011;22678;52.052;4.242;2023-09-07T03:47:59;9.30;;;5.80;;
36691;SDS011;22678;52.052;4.242;2023-09-07T03:50:24;9.40;;;5.68;;
36691;SDS011;22678;52.052;4.242;2023-09-07T03:52:49;10.30;;;5.97;;
36691;SDS011;22678;52.052;4.242;2023-09-07T03:55:15;9.18;;;6.68;;
36691;SDS011;22678;52.052;4.242;2023-09-07T03:57:40;12.02;;;6.70;;
36691;SDS011;22678;52.052;4.242;2023-09-07T04:00:06;12.07;;;7.55;;
36691;SDS011;22678;52.052;4.242;2023-09-07T04:02:33;12.50;;;7.05;;
36691;SDS011;22678;52.052;4.242;2023-09-07T04:04:59;14.00;;;8.15;;
36691;SDS011;22678;52.052;4.242;2023-09-07T04:07:26;11.30;;;8.85;;
36691;SDS011;22678;52.052;4.242;2023-09-07T04:09:52;9.48;;;6.88;;
36691;SDS011;22678;52.052;4.242;2023-09-07T04:12:17;10.80;;;5.97;;
36691;SDS011;22678;52.052;4.242;2023-09-07T04:14:43;11.98;;;7.72;;
36691;SDS011;22678;52.052;4.242;2023-09-07T04:17:09;11.07;;;5.40;;
36691;SDS011;22678;52.052;4.242;2023-09-07T04:19:35;10.20;;;6.85;;
36691;SDS011;22678;52.052;4.242;2023-09-07T04:22:00;11.88;;;7.63;;
36691;SDS011;22678;52.052;4.242;2023-09-07T04:24:26;9.38;;;5.90;;
36691;SDS011;22678;52.052;4.242;2023-09-07T04:26:57;11.40;;;7.57;;
36691;SDS011;22678;52.052;4.242;2023-09-07T04:29:24;10.82;;;6.93;;
36691;SDS011;22678;52.052;4.242;2023-09-07T04:31:50;13.82;;;7.80;;
36691;SDS011;22678;52.052;4.242;2023-09-07T04:34:15;10.50;;;6.55;;
36691;SDS011;22678;52.052;4.242;2023-09-07T04:36:40;10.07;;;5.63;;
36691;SDS011;22678;52.052;4.242;2023-09-07T04:39:06;10.50;;;5.75;;
36691;SDS011;22678;52.052;4.242;2023-09-07T04:41:31;11.57;;;6.78;;
36691;SDS011;22678;52.052;4.242;2023-09-07T04:43:56;11.80;;;7.53;;
36691;SDS011;22678;52.052;4.242;2023-09-07T04:46:22;12.68;;;8.18;;
36691;SDS011;22678;52.052;4.242;2023-09-07T04:48:48;15.75;;;9.07;;
36691;SDS011;22678;52.052;4.242;2023-09-07T04:51:13;15.65;;;8.20;;
36691;SDS011;22678;52.052;4.242;2023-09-07T04:53:39;12.63;;;6.40;;
36691;SDS011;22678;52.052;4.242;2023-09-07T04:56:05;13.10;;;7.07;;
36691;SDS011;22678;52.052;4.242;2023-09-07T04:58:31;11.85;;;6.85;;
36691;SDS011;22678;52.052;4.242;2023-09-07T05:01:07;10.90;;;6.28;;
36691;SDS011;22678;52.052;4.242;2023-09-07T05:03:34;9.93;;;6.05;;
36691;SDS011;22678;52.052;4.242;2023-09-07T05:06:00;11.52;;;7.72;;
36691;SDS011;22678;52.052;4.242;2023-09-07T05:08:25;12.60;;;7.03;;
36691;SDS011;22678;52.052;4.242;2023-09-07T05:10:54;17.02;;;9.98;;
36691;SDS011;22678;52.052;4.242;2023-09-07T05:13:21;15.02;;;9.15;;
36691;SDS011;22678;52.052;4.242;2023-09-07T05:15:50;14.77;;;8.23;;
36691;SDS011;22678;52.052;4.242;2023-09-07T05:18:17;16.45;;;8.80;;
36691;SDS011;22678;52.052;4.242;2023-09-07T05:20:43;17.73;;;9.25;;
36691;SDS011;22678;52.052;4.242;2023-09-07T05:23:13;14.43;;;9.00;;
36691;SDS011;22678;52.052;4.242;2023-09-07T05:25:48;13.48;;;7.45;;
36691;SDS011;22678;52.052;4.242;2023-09-07T05:28:15;15.75;;;8.45;;
36691;SDS011;22678;52.052;4.242;2023-09-07T05:30:41;14.43;;;7.22;;
36691;SDS011;22678;52.052;4.242;2023-09-07T05:33:11;11.65;;;7.95;;
36691;SDS011;22678;52.052;4.242;2023-09-07T05:35:37;11.88;;;8.18;;
36691;SDS011;22678;52.052;4.242;2023-09-07T05:38:06;13.63;;;8.60;;
36691;SDS011;22678;52.052;4.242;2023-09-07T05:40:35;12.68;;;7.80;;
36691;SDS011;22678;52.052;4.242;2023-09-07T05:43:01;12.57;;;7.68;;
36691;SDS011;22678;52.052;4.242;2023-09-07T05:45:29;10.90;;;7.18;;
36691;SDS011;22678;52.052;4.242;2023-09-07T05:47:59;10.90;;;7.37;;
36691;SDS011;22678;52.052;4.242;2023-09-07T05:50:25;11.57;;;8.07;;
36691;SDS011;22678;52.052;4.242;2023-09-07T05:52:50;12.63;;;7.90;;
36691;SDS011;22678;52.052;4.242;2023-09-07T05:55:15;12.10;;;7.57;;
36691;SDS011;22678;52.052;4.242;2023-09-07T05:57:41;11.77;;;6.80;;
36691;SDS011;22678;52.052;4.242;2023-09-07T06:00:06;18.67;;;9.80;;
36691;SDS011;22678;52.052;4.242;2023-09-07T06:02:32;15.30;;;9.15;;
36691;SDS011;22678;52.052;4.242;2023-09-07T06:04:58;14.07;;;9.57;;
36691;SDS011;22678;52.052;4.242;2023-09-07T06:10:53;13.43;;;8.23;;
36691;SDS011;22678;52.052;4.242;2023-09-07T06:13:18;12.27;;;8.20;;
36691;SDS011;22678;52.052;4.242;2023-09-07T06:15:43;14.88;;;9.20;;
36691;SDS011;22678;52.052;4.242;2023-09-07T06:18:09;14.60;;;9.13;;
36691;SDS011;22678;52.052;4.242;2023-09-07T06:20:34;14.75;;;9.80;;
36691;SDS011;22678;52.052;4.242;2023-09-07T06:23:00;15.05;;;9.35;;
36691;SDS011;22678;52.052;4.242;2023-09-07T06:25:25;11.60;;;7.88;;
36691;SDS011;22678;52.052;4.242;2023-09-07T06:27:52;14.68;;;8.35;;
36691;SDS011;22678;52.052;4.242;2023-09-07T06:30:17;12.27;;;7.25;;
36691;SDS011;22678;52.052;4.242;2023-09-07T06:32:43;15.77;;;10.43;;
36691;SDS011;22678;52.052;4.242;2023-09-07T06:35:08;20.35;;;9.27;;
36691;SDS011;22678;52.052;4.242;2023-09-07T06:37:35;15.38;;;9.45;;
36691;SDS011;22678;52.052;4.242;2023-09-07T06:40:01;16.40;;;9.98;;
36691;SDS011;22678;52.052;4.242;2023-09-07T06:42:28;13.85;;;8.50;;
36691;SDS011;22678;52.052;4.242;2023-09-07T06:44:55;14.82;;;7.78;;
36691;SDS011;22678;52.052;4.242;2023-09-07T06:47:21;14.77;;;8.52;;
36691;SDS011;22678;52.052;4.242;2023-09-07T06:49:46;14.60;;;8.48;;
36691;SDS011;22678;52.052;4.242;2023-09-07T06:52:11;15.23;;;8.85;;
36691;SDS011;22678;52.052;4.242;2023-09-07T06:54:37;16.02;;;9.73;;
36691;SDS011;22678;52.052;4.242;2023-09-07T06:57:06;12.68;;;7.75;;
36691;SDS011;22678;52.052;4.242;2023-09-07T06:59:32;14.63;;;7.35;;
36691;SDS011;22678;52.052;4.242;2023-09-07T07:01:57;12.07;;;6.72;;
36691;SDS011;22678;52.052;4.242;2023-09-07T07:04:25;16.20;;;8.32;;
36691;SDS011;22678;52.052;4.242;2023-09-07T07:06:50;16.92;;;8.00;;
36691;SDS011;22678;52.052;4.242;2023-09-07T07:09:15;17.90;;;9.32;;
36691;SDS011;22678;52.052;4.242;2023-09-07T07:11:41;12.48;;;8.00;;
36691;SDS011;22678;52.052;4.242;2023-09-07T07:14:08;13.85;;;9.73;;
36691;SDS011;22678;52.052;4.242;2023-09-07T07:16:34;16.10;;;8.45;;
36691;SDS011;22678;52.052;4.242;2023-09-07T07:18:59;11.10;;;7.20;;
36691;SDS011;22678;52.052;4.242;2023-09-07T07:21:24;9.68;;;6.55;;
36691;SDS011;22678;52.052;4.242;2023-09-07T07:23:50;8.73;;;6.05;;
36691;SDS011;22678;52.052;4.242;2023-09-07T07:26:15;12.35;;;6.97;;
36691;SDS011;22678;52.052;4.242;2023-09-07T07:28:41;13.82;;;7.68;;
36691;SDS011;22678;52.052;4.242;2023-09-07T07:31:07;9.50;;;7.03;;
36691;SDS011;22678;52.052;4.242;2023-09-07T07:33:33;12.15;;;6.40;;
36691;SDS011;22678;52.052;4.242;2023-09-07T07:35:59;10.20;;;7.20;;
36691;SDS011;22678;52.052;4.242;2023-09-07T07:38:24;11.93;;;8.00;;
36691;SDS011;22678;52.052;4.242;2023-09-07T07:40:49;11.80;;;6.85;;
36691;SDS011;22678;52.052;4.242;2023-09-07T07:43:16;12.38;;;6.72;;
36691;SDS011;22678;52.052;4.242;2023-09-07T07:45:42;15.63;;;8.63;;
36691;SDS011;22678;52.052;4.242;2023-09-07T07:48:07;17.23;;;7.63;;
36691;SDS011;22678;52.052;4.242;2023-09-07T07:50:37;13.55;;;8.00;;
36691;SDS011;22678;52.052;4.242;2023-09-07T07:53:04;13.85;;;8.57;;
36691;SDS011;22678;52.052;4.242;2023-09-07T07:55:29;10.90;;;6.43;;
36691;SDS011;22678;52.052;4.242;2023-09-07T07:57:55;8.25;;;4.88;;
36691;SDS011;22678;52.052;4.242;2023-09-07T08:00:20;9.88;;;6.28;;
36691;SDS011;22678;52.052;4.242;2023-09-07T08:02:45;10.10;;;6.07;;
36691;SDS011;22678;52.052;4.242;2023-09-07T08:05:11;8.77;;;5.13;;
36691;SDS011;22678;52.052;4.242;2023-09-07T08:07:36;13.68;;;5.30;;
36691;SDS011;22678;52.052;4.242;2023-09-07T08:10:01;10.90;;;4.57;;
36691;SDS011;22678;52.052;4.242;2023-09-07T08:12:28;10.90;;;6.70;;
36691;SDS011;22678;52.052;4.242;2023-09-07T08:14:53;13.52;;;5.47;;
36691;SDS011;22678;52.052;4.242;2023-09-07T08:17:18;9.60;;;4.22;;
36691;SDS011;22678;52.052;4.242;2023-09-07T08:19:45;8.52;;;4.20;;
36691;SDS011;22678;52.052;4.242;2023-09-07T08:22:13;12.32;;;4.10;;
36691;SDS011;22678;52.052;4.242;2023-09-07T08:24:38;7.07;;;4.10;;
36691;SDS011;22678;52.052;4.242;2023-09-07T08:27:05;7.70;;;4.30;;
36691;SDS011;22678;52.052;4.242;2023-09-07T08:29:30;7.47;;;4.25;;
36691;SDS011;22678;52.052;4.242;2023-09-07T08:31:57;7.05;;;3.55;;
36691;SDS011;22678;52.052;4.242;2023-09-07T08:34:24;9.27;;;4.35;;
36691;SDS011;22678;52.052;4.242;2023-09-07T08:36:49;8.82;;;3.65;;
36691;SDS011;22678;52.052;4.242;2023-09-07T08:39:15;10.07;;;4.55;;
36691;SDS011;22678;52.052;4.242;2023-09-07T08:41:41;7.55;;;4.35;;
36691;SDS011;22678;52.052;4.242;2023-09-07T08:44:18;11.15;;;4.70;;
36691;SDS011;22678;52.052;4.242;2023-09-07T08:46:49;5.28;;;3.78;;
36691;SDS011;22678;52.052;4.242;2023-09-07T08:49:14;6.68;;;3.80;;
36691;SDS011;22678;52.052;4.242;2023-09-07T08:51:44;7.15;;;4.28;;
36691;SDS011;22678;52.052;4.242;2023-09-07T08:54:10;7.63;;;4.28;;
36691;SDS011;22678;52.052;4.242;2023-09-07T08:56:37;8.50;;;3.97;;
36691;SDS011;22678;52.052;4.242;2023-09-07T08:59:02;10.82;;;3.63;;
36691;SDS011;22678;52.052;4.242;2023-09-07T09:01:29;6.95;;;3.70;;
36691;SDS011;22678;52.052;4.242;2023-09-07T09:03:56;6.13;;;3.60;;
36691;SDS011;22678;52.052;4.242;2023-09-07T09:06:23;6.15;;;4.10;;
36691;SDS011;22678;52.052;4.242;2023-09-07T09:08:49;9.38;;;5.78;;
36691;SDS011;22678;52.052;4.242;2023-09-07T09:11:24;7.10;;;3.90;;
36691;SDS011;22678;52.052;4.242;2023-09-07T09:13:51;7.35;;;3.13;;
36691;SDS011;22678;52.052;4.242;2023-09-07T09:16:18;10.70;;;3.85;;
36691;SDS011;22678;52.052;4.242;2023-09-07T09:18:50;8.85;;;3.13;;
36691;SDS011;22678;52.052;4.242;2023-09-07T09:21:21;7.13;;;3.38;;
36691;SDS011;22678;52.052;4.242;2023-09-07T09:23:48;6.90;;;3.50;;
36691;SDS011;22678;52.052;4.242;2023-09-07T09:26:15;4.55;;;2.42;;
36691;SDS011;22678;52.052;4.242;2023-09-07T09:28:41;6.72;;;3.60;;
36691;SDS011;22678;52.052;4.242;2023-09-07T09:31:08;6.65;;;3.00;;
36691;SDS011;22678;52.052;4.242;2023-09-07T09:33:37;5.05;;;3.03;;
36691;SDS011;22678;52.052;4.242;2023-09-07T09:36:02;5.35;;;3.45;;
36691;SDS011;22678;52.052;4.242;2023-09-07T09:38:29;24.75;;;3.60;;
36691;SDS011;22678;52.052;4.242;2023-09-07T09:40:57;5.25;;;2.90;;
36691;SDS011;22678;52.052;4.242;2023-09-07T09:43:23;6.05;;;2.88;;
36691;SDS011;22678;52.052;4.242;2023-09-07T09:45:50;6.40;;;3.13;;
36691;SDS011;22678;52.052;4.242;2023-09-07T09:48:17;4.53;;;2.30;;
36691;SDS011;22678;52.052;4.242;2023-09-07T09:50:45;6.63;;;3.20;;
36691;SDS011;22678;52.052;4.242;2023-09-07T09:53:13;4.60;;;2.67;;
36691;SDS011;22678;52.052;4.242;2023-09-07T09:55:43;6.45;;;2.95;;
36691;SDS011;22678;52.052;4.242;2023-09-07T09:58:15;6.22;;;2.70;;
36691;SDS011;22678;52.052;4.242;2023-09-07T10:00:45;5.05;;;2.22;;
36691;SDS011;22678;52.052;4.242;2023-09-07T10:03:30;4.28;;;2.33;;
36691;SDS011;22678;52.052;4.242;2023-09-07T10:09:01;5.78;;;2.13;;
36691;SDS011;22678;52.052;4.242;2023-09-07T10:11:36;6.55;;;2.67;;
36691;SDS011;22678;52.052;4.242;2023-09-07T10:14:03;4.10;;;1.48;;
36691;SDS011;22678;52.052;4.242;2023-09-07T10:16:40;5.80;;;2.08;;
36691;SDS011;22678;52.052;4.242;2023-09-07T10:19:15;4.85;;;2.55;;
36691;SDS011;22678;52.052;4.242;2023-09-07T10:21:40;7.47;;;2.13;;
36691;SDS011;22678;52.052;4.242;2023-09-07T10:24:06;3.85;;;2.40;;
36691;SDS011;22678;52.052;4.242;2023-09-07T10:26:31;7.35;;;2.53;;
36691;SDS011;22678;52.052;4.242;2023-09-07T10:29:00;4.88;;;2.50;;
36691;SDS011;22678;52.052;4.242;2023-09-07T10:31:28;3.92;;;2.33;;
36691;SDS011;22678;52.052;4.242;2023-09-07T10:34:07;7.15;;;2.85;;
36691;SDS011;22678;52.052;4.242;2023-09-07T10:36:33;4.40;;;2.65;;
36691;SDS011;22678;52.052;4.242;2023-09-07T10:39:02;7.00;;;2.83;;
36691;SDS011;22678;52.052;4.242;2023-09-07T10:41:29;4.85;;;2.35;;
36691;SDS011;22678;52.052;4.242;2023-09-07T10:44:06;4.50;;;1.80;;
36691;SDS011;22678;52.052;4.242;2023-09-07T10:46:31;3.88;;;2.25;;
36691;SDS011;22678;52.052;4.242;2023-09-07T10:48:57;4.45;;;2.10;;
36691;SDS011;22678;52.052;4.242;2023-09-07T10:51:22;6.07;;;2.10;;
36691;SDS011;22678;52.052;4.242;2023-09-07T10:53:48;9.23;;;2.38;;
36691;SDS011;22678;52.052;4.242;2023-09-07T10:56:14;4.75;;;2.67;;
36691;SDS011;22678;52.052;4.242;2023-09-07T10:58:39;5.07;;;2.08;;
36691;SDS011;22678;52.052;4.242;2023-09-07T11:01:07;6.88;;;2.72;;
36691;SDS011;22678;52.052;4.242;2023-09-07T11:03:33;4.43;;;2.50;;
36691;SDS011;22678;52.052;4.242;2023-09-07T11:08:39;4.55;;;2.22;;
36691;SDS011;22678;52.052;4.242;2023-09-07T11:11:04;4.40;;;2.30;;
36691;SDS011;22678;52.052;4.242;2023-09-07T11:13:30;4.05;;;1.60;;
36691;SDS011;22678;52.052;4.242;2023-09-07T11:15:56;5.05;;;2.38;;
36691;SDS011;22678;52.052;4.242;2023-09-07T11:18:23;3.83;;;1.80;;
36691;SDS011;22678;52.052;4.242;2023-09-07T11:20:49;6.25;;;2.05;;
36691;SDS011;22678;52.052;4.242;2023-09-07T11:23:17;5.22;;;1.50;;
36691;SDS011;22678;52.052;4.242;2023-09-07T11:25:43;5.15;;;2.67;;
36691;SDS011;22678;52.052;4.242;2023-09-07T11:28:08;8.52;;;1.58;;
36691;SDS011;22678;52.052;4.242;2023-09-07T11:30:34;3.97;;;1.90;;
36691;SDS011;22678;52.052;4.242;2023-09-07T11:33:06;4.85;;;1.65;;
36691;SDS011;22678;52.052;4.242;2023-09-07T11:35:35;3.97;;;2.42;;
36691;SDS011;22678;52.052;4.242;2023-09-07T11:38:02;4.72;;;2.25;;
36691;SDS011;22678;52.052;4.242;2023-09-07T11:40:30;5.00;;;2.55;;
36691;SDS011;22678;52.052;4.242;2023-09-07T11:42:56;5.25;;;1.63;;
36691;SDS011;22678;52.052;4.242;2023-09-07T11:45:21;4.00;;;1.35;;
36691;SDS011;22678;52.052;4.242;2023-09-07T11:47:47;6.82;;;2.20;;
36691;SDS011;22678;52.052;4.242;2023-09-07T11:50:12;6.10;;;2.72;;
36691;SDS011;22678;52.052;4.242;2023-09-07T11:52:38;2.88;;;1.27;;
36691;SDS011;22678;52.052;4.242;2023-09-07T11:55:03;3.45;;;1.48;;
36691;SDS011;22678;52.052;4.242;2023-09-07T11:57:29;3.70;;;1.60;;
36691;SDS011;22678;52.052;4.242;2023-09-07T11:59:55;5.38;;;2.40;;
36691;SDS011;22678;52.052;4.242;2023-09-07T12:02:20;12.60;;;2.28;;
36691;SDS011;22678;52.052;4.242;2023-09-07T12:04:46;1.98;;;1.02;;
36691;SDS011;22678;52.052;4.242;2023-09-07T12:07:12;2.75;;;1.50;;
36691;SDS011;22678;52.052;4.242;2023-09-07T12:09:38;6.18;;;1.40;;
36691;SDS011;22678;52.052;4.242;2023-09-07T12:12:04;5.07;;;1.38;;
36691;SDS011;22678;52.052;4.242;2023-09-07T12:14:29;3.65;;;1.30;;
36691;SDS011;22678;52.052;4.242;2023-09-07T12:16:56;2.83;;;1.20;;
36691;SDS011;22678;52.052;4.242;2023-09-07T12:19:21;3.47;;;1.20;;
36691;SDS011;22678;52.052;4.242;2023-09-07T12:21:47;3.95;;;1.42;;
36691;SDS011;22678;52.052;4.242;2023-09-07T12:24:12;4.18;;;1.73;;
36691;SDS011;22678;52.052;4.242;2023-09-07T12:26:37;3.28;;;2.10;;
36691;SDS011;22678;52.052;4.242;2023-09-07T12:29:03;4.80;;;1.80;;
36691;SDS011;22678;52.052;4.242;2023-09-07T12:31:29;5.13;;;1.77;;
36691;SDS011;22678;52.052;4.242;2023-09-07T12:33:56;2.92;;;1.35;;
36691;SDS011;22678;52.052;4.242;2023-09-07T12:36:21;7.03;;;1.80;;
36691;SDS011;22678;52.052;4.242;2023-09-07T12:38:47;4.28;;;1.85;;
36691;SDS011;22678;52.052;4.242;2023-09-07T12:41:12;4.53;;;1.40;;
36691;SDS011;22678;52.052;4.242;2023-09-07T12:43:38;3.80;;;1.70;;
36691;SDS011;22678;52.052;4.242;2023-09-07T12:46:03;4.65;;;1.48;;
36691;SDS011;22678;52.052;4.242;2023-09-07T12:48:29;5.38;;;1.83;;
36691;SDS011;22678;52.052;4.242;2023-09-07T12:50:54;2.95;;;1.15;;
36691;SDS011;22678;52.052;4.242;2023-09-07T12:53:20;5.85;;;1.48;;
36691;SDS011;22678;52.052;4.242;2023-09-07T12:55:49;4.30;;;1.10;;
36691;SDS011;22678;52.052;4.242;2023-09-07T12:58:15;2.72;;;1.08;;
36691;SDS011;22678;52.052;4.242;2023-09-07T13:00:41;4.00;;;1.35;;
36691;SDS011;22678;52.052;4.242;2023-09-07T13:03:06;4.30;;;1.17;;
36691;SDS011;22678;52.052;4.242;2023-09-07T13:05:31;7.32;;;1.55;;
36691;SDS011;22678;52.052;4.242;2023-09-07T13:07:58;4.20;;;1.40;;
36691;SDS011;22678;52.052;4.242;2023-09-07T13:10:24;4.78;;;1.55;;
36691;SDS011;22678;52.052;4.242;2023-09-07T13:12:49;5.63;;;1.80;;
36691;SDS011;22678;52.052;4.242;2023-09-07T13:15:15;5.70;;;0.90;;
36691;SDS011;22678;52.052;4.242;2023-09-07T13:17:40;4.18;;;1.38;;
36691;SDS011;22678;52.052;4.242;2023-09-07T13:20:06;4.10;;;1.50;;
36691;SDS011;22678;52.052;4.242;2023-09-07T13:22:31;3.05;;;1.05;;
36691;SDS011;22678;52.052;4.242;2023-09-07T13:24:57;2.88;;;1.10;;
36691;SDS011;22678;52.052;4.242;2023-09-07T13:27:22;3.28;;;1.38;;
36691;SDS011;22678;52.052;4.242;2023-09-07T13:29:47;4.35;;;1.00;;
36691;SDS011;22678;52.052;4.242;2023-09-07T13:32:13;3.53;;;1.50;;
36691;SDS011;22678;52.052;4.242;2023-09-07T13:34:38;4.80;;;1.05;;
36691;SDS011;22678;52.052;4.242;2023-09-07T13:37:04;7.35;;;2.28;;
36691;SDS011;22678;52.052;4.242;2023-09-07T13:39:29;5.03;;;1.13;;
36691;SDS011;22678;52.052;4.242;2023-09-07T13:41:55;2.50;;;0.98;;
36691;SDS011;22678;52.052;4.242;2023-09-07T13:44:20;3.75;;;1.38;;
36691;SDS011;22678;52.052;4.242;2023-09-07T13:46:45;7.95;;;2.00;;
36691;SDS011;22678;52.052;4.242;2023-09-07T13:49:11;6.80;;;1.52;;
36691;SDS011;22678;52.052;4.242;2023-09-07T13:51:37;3.95;;;1.45;;
36691;SDS011;22678;52.052;4.242;2023-09-07T13:54:06;2.47;;;1.38;;
36691;SDS011;22678;52.052;4.242;2023-09-07T13:56:32;5.70;;;1.77;;
36691;SDS011;22678;52.052;4.242;2023-09-07T13:58:58;5.18;;;1.92;;
36691;SDS011;22678;52.052;4.242;2023-09-07T14:01:23;4.57;;;1.73;;
36691;SDS011;22678;52.052;4.242;2023-09-07T14:03:49;2.92;;;1.00;;
36691;SDS011;22678;52.052;4.242;2023-09-07T14:06:15;4.38;;;1.40;;
36691;SDS011;22678;52.052;4.242;2023-09-07T14:08:42;3.67;;;1.48;;
36691;SDS011;22678;52.052;4.242;2023-09-07T14:11:08;5.05;;;1.65;;
36691;SDS011;22678;52.052;4.242;2023-09-07T14:13:34;6.32;;;1.15;;
36691;SDS011;22678;52.052;4.242;2023-09-07T14:16:00;2.80;;;1.80;;
36691;SDS011;22678;52.052;4.242;2023-09-07T14:18:25;3.17;;;1.25;;
36691;SDS011;22678;52.052;4.242;2023-09-07T14:20:50;3.40;;;1.73;;
36691;SDS011;22678;52.052;4.242;2023-09-07T14:23:17;2.33;;;0.90;;
36691;SDS011;22678;52.052;4.242;2023-09-07T14:25:45;3.70;;;1.50;;
36691;SDS011;22678;52.052;4.242;2023-09-07T14:28:12;3.22;;;1.48;;
36691;SDS011;22678;52.052;4.242;2023-09-07T14:30:38;3.50;;;1.38;;
36691;SDS011;22678;52.052;4.242;2023-09-07T14:33:03;3.85;;;1.27;;
36691;SDS011;22678;52.052;4.242;2023-09-07T14:35:29;2.63;;;1.15;;
36691;SDS011;22678;52.052;4.242;2023-09-07T14:37:55;5.45;;;1.67;;
36691;SDS011;22678;52.052;4.242;2023-09-07T14:40:20;3.47;;;1.75;;
36691;SDS011;22678;52.052;4.242;2023-09-07T14:42:48;3.15;;;1.38;;
36691;SDS011;22678;52.052;4.242;2023-09-07T14:45:15;2.97;;;1.27;;
36691;SDS011;22678;52.052;4.242;2023-09-07T14:47:40;4.88;;;1.40;;